sensor_id;sensor_type;location;lat;lon;timestamp;P1;durP1;ratioP1;P2;durP2;ratioP2
6185;SDS011;3126;52.738;8.316;2023-08-17T00:04:14;4.63;;;2.20;;
6185;SDS011;3126;52.738;8.316;2023-08-17T00:09:16;4.53;;;1.73;;
6185;SDS011;3126;52.738;8.316;2023-08-17T00:14:17;3.72;;;2.15;;
6185;SDS011;3126;52.738;8.316;2023-08-17T00:19:18;3.45;;;1.98;;
6185;SDS011;3126;52.738;8.316;2023-08-17T00:24:19;2.65;;;2.10;;
6185;SDS011;3126;52.738;8.316;2023-08-17T00:29:20;2.28;;;1.67;;
6185;SDS011;3126;52.738;8.316;2023-08-17T00:34:21;3.83;;;1.90;;
6185;SDS011;3126;52.738;8.316;2023-08-17T00:39:22;4.80;;;2.00;;
6185;SDS011;3126;52.738;8.316;2023-08-17T00:44:23;5.28;;;2.13;;
6185;SDS011;3126;52.738;8.316;2023-08-17T00:49:24;4.00;;;2.13;;
6185;SDS011;3126;52.738;8.316;2023-08-17T00:54:25;5.20;;;2.42;;
6185;SDS011;3126;52.738;8.316;2023-08-17T00:59:27;4.97;;;2.55;;
6185;SDS011;3126;52.738;8.316;2023-08-17T01:04:28;3.15;;;2.30;;
6185;SDS011;3126;52.738;8.316;2023-08-17T01:09:29;4.68;;;2.15;;
6185;SDS011;3126;52.738;8.316;2023-08-17T01:14:31;5.60;;;2.20;;
6185;SDS011;3126;52.738;8.316;2023-08-17T01:19:33;4.63;;;2.25;;
6185;SDS011;3126;52.738;8.316;2023-08-17T01:24:34;3.15;;;2.78;;
6185;SDS011;3126;52.738;8.316;2023-08-17T01:29:35;6.47;;;2.42;;
6185;SDS011;3126;52.738;8.316;2023-08-17T01:34:39;4.30;;;2.33;;
6185;SDS011;3126;52.738;8.316;2023-08-17T01:39:42;4.78;;;2.20;;
6185;SDS011;3126;52.738;8.316;2023-08-17T01:44:44;3.15;;;2.35;;
6185;SDS011;3126;52.738;8.316;2023-08-17T01:49:45;4.40;;;2.13;;
6185;SDS011;3126;52.738;8.316;2023-08-17T01:54:46;2.42;;;2.22;;
6185;SDS011;3126;52.738;8.316;2023-08-17T01:59:47;3.42;;;2.70;;
6185;SDS011;3126;52.738;8.316;2023-08-17T02:04:48;7.47;;;2.40;;
6185;SDS011;3126;52.738;8.316;2023-08-17T02:09:49;4.93;;;2.45;;
6185;SDS011;3126;52.738;8.316;2023-08-17T02:14:50;4.93;;;2.97;;
6185;SDS011;3126;52.738;8.316;2023-08-17T02:19:51;4.47;;;3.03;;
6185;SDS011;3126;52.738;8.316;2023-08-17T02:24:52;5.95;;;2.92;;
6185;SDS011;3126;52.738;8.316;2023-08-17T02:29:53;6.18;;;2.90;;
6185;SDS011;3126;52.738;8.316;2023-08-17T02:34:54;4.47;;;2.72;;
6185;SDS011;3126;52.738;8.316;2023-08-17T02:39:55;5.03;;;2.92;;
6185;SDS011;3126;52.738;8.316;2023-08-17T02:44:56;5.97;;;3.33;;
6185;SDS011;3126;52.738;8.316;2023-08-17T02:49:57;6.63;;;3.40;;
6185;SDS011;3126;52.738;8.316;2023-08-17T02:54:58;5.75;;;2.90;;
6185;SDS011;3126;52.738;8.316;2023-08-17T02:59:59;4.88;;;2.58;;
6185;SDS011;3126;52.738;8.316;2023-08-17T03:05:00;5.38;;;2.60;;
6185;SDS011;3126;52.738;8.316;2023-08-17T03:10:00;4.78;;;2.60;;
6185;SDS011;3126;52.738;8.316;2023-08-17T03:15:01;6.75;;;2.42;;
6185;SDS011;3126;52.738;8.316;2023-08-17T03:20:03;4.72;;;2.40;;
6185;SDS011;3126;52.738;8.316;2023-08-17T03:25:06;4.47;;;2.67;;
6185;SDS011;3126;52.738;8.316;2023-08-17T03:30:07;6.40;;;2.90;;
6185;SDS011;3126;52.738;8.316;2023-08-17T03:35:08;4.07;;;3.22;;
6185;SDS011;3126;52.738;8.316;2023-08-17T03:40:09;5.22;;;3.47;;
6185;SDS011;3126;52.738;8.316;2023-08-17T03:45:10;3.50;;;3.10;;
6185;SDS011;3126;52.738;8.316;2023-08-17T03:50:11;4.55;;;3.17;;
6185;SDS011;3126;52.738;8.316;2023-08-17T03:55:12;7.45;;;3.05;;
6185;SDS011;3126;52.738;8.316;2023-08-17T04:00:13;4.13;;;2.92;;
6185;SDS011;3126;52.738;8.316;2023-08-17T04:05:14;4.63;;;3.15;;
6185;SDS011;3126;52.738;8.316;2023-08-17T04:10:15;7.22;;;3.08;;
6185;SDS011;3126;52.738;8.316;2023-08-17T04:15:16;4.25;;;2.83;;
6185;SDS011;3126;52.738;8.316;2023-08-17T04:20:17;6.38;;;3.15;;
6185;SDS011;3126;52.738;8.316;2023-08-17T04:25:18;4.60;;;3.22;;
6185;SDS011;3126;52.738;8.316;2023-08-17T04:30:19;4.40;;;3.35;;
6185;SDS011;3126;52.738;8.316;2023-08-17T04:35:20;5.03;;;3.00;;
6185;SDS011;3126;52.738;8.316;2023-08-17T04:40:21;4.82;;;3.20;;
6185;SDS011;3126;52.738;8.316;2023-08-17T04:45:22;5.20;;;3.25;;
6185;SDS011;3126;52.738;8.316;2023-08-17T04:50:23;6.85;;;2.92;;
6185;SDS011;3126;52.738;8.316;2023-08-17T04:55:24;4.63;;;3.22;;
6185;SDS011;3126;52.738;8.316;2023-08-17T05:00:25;5.03;;;3.25;;
6185;SDS011;3126;52.738;8.316;2023-08-17T05:10:29;6.68;;;2.88;;
6185;SDS011;3126;52.738;8.316;2023-08-17T05:15:30;6.65;;;3.30;;
6185;SDS011;3126;52.738;8.316;2023-08-17T05:20:31;5.90;;;3.00;;
6185;SDS011;3126;52.738;8.316;2023-08-17T05:25:32;5.63;;;3.47;;
6185;SDS011;3126;52.738;8.316;2023-08-17T05:30:33;8.52;;;3.50;;
6185;SDS011;3126;52.738;8.316;2023-08-17T05:35:34;5.70;;;2.70;;
6185;SDS011;3126;52.738;8.316;2023-08-17T05:40:35;5.80;;;2.45;;
6185;SDS011;3126;52.738;8.316;2023-08-17T05:45:36;5.03;;;2.80;;
6185;SDS011;3126;52.738;8.316;2023-08-17T05:50:37;5.43;;;2.88;;
6185;SDS011;3126;52.738;8.316;2023-08-17T05:55:38;5.93;;;2.28;;
6185;SDS011;3126;52.738;8.316;2023-08-17T06:00:39;6.57;;;2.20;;
6185;SDS011;3126;52.738;8.316;2023-08-17T06:05:39;3.90;;;2.70;;
6185;SDS011;3126;52.738;8.316;2023-08-17T06:10:41;3.95;;;2.58;;
6185;SDS011;3126;52.738;8.316;2023-08-17T06:15:41;3.67;;;2.05;;
6185;SDS011;3126;52.738;8.316;2023-08-17T06:20:42;6.30;;;2.40;;
6185;SDS011;3126;52.738;8.316;2023-08-17T06:25:46;4.50;;;2.20;;
6185;SDS011;3126;52.738;8.316;2023-08-17T06:30:47;6.05;;;2.88;;
6185;SDS011;3126;52.738;8.316;2023-08-17T06:35:52;4.85;;;2.45;;
6185;SDS011;3126;52.738;8.316;2023-08-17T06:40:53;6.65;;;2.20;;
6185;SDS011;3126;52.738;8.316;2023-08-17T06:45:54;5.32;;;2.80;;
6185;SDS011;3126;52.738;8.316;2023-08-17T06:50:56;4.63;;;2.28;;
6185;SDS011;3126;52.738;8.316;2023-08-17T06:55:57;5.05;;;2.42;;
6185;SDS011;3126;52.738;8.316;2023-08-17T07:00:58;6.80;;;2.22;;
6185;SDS011;3126;52.738;8.316;2023-08-17T07:05:59;2.75;;;2.22;;
6185;SDS011;3126;52.738;8.316;2023-08-17T07:11:00;4.65;;;2.72;;
6185;SDS011;3126;52.738;8.316;2023-08-17T07:16:01;3.88;;;2.42;;
6185;SDS011;3126;52.738;8.316;2023-08-17T07:21:02;3.33;;;2.35;;
6185;SDS011;3126;52.738;8.316;2023-08-17T07:26:03;3.33;;;2.55;;
6185;SDS011;3126;52.738;8.316;2023-08-17T07:31:04;4.82;;;3.08;;
6185;SDS011;3126;52.738;8.316;2023-08-17T07:36:05;4.63;;;3.08;;
6185;SDS011;3126;52.738;8.316;2023-08-17T07:41:06;5.85;;;2.97;;
6185;SDS011;3126;52.738;8.316;2023-08-17T07:46:08;5.47;;;2.95;;
6185;SDS011;3126;52.738;8.316;2023-08-17T07:51:08;6.53;;;3.55;;
6185;SDS011;3126;52.738;8.316;2023-08-17T07:56:09;3.92;;;2.85;;
6185;SDS011;3126;52.738;8.316;2023-08-17T08:01:10;4.40;;;2.90;;
6185;SDS011;3126;52.738;8.316;2023-08-17T08:06:11;4.57;;;2.97;;
6185;SDS011;3126;52.738;8.316;2023-08-17T08:11:12;4.90;;;3.38;;
6185;SDS011;3126;52.738;8.316;2023-08-17T08:16:13;4.30;;;3.10;;
6185;SDS011;3126;52.738;8.316;2023-08-17T08:21:14;4.68;;;3.03;;
6185;SDS011;3126;52.738;8.316;2023-08-17T08:26:15;4.65;;;3.63;;
6185;SDS011;3126;52.738;8.316;2023-08-17T08:31:16;3.83;;;3.47;;
6185;SDS011;3126;52.738;8.316;2023-08-17T08:36:17;5.45;;;3.55;;
6185;SDS011;3126;52.738;8.316;2023-08-17T08:41:18;3.45;;;3.03;;
6185;SDS011;3126;52.738;8.316;2023-08-17T08:46:20;5.07;;;3.28;;
6185;SDS011;3126;52.738;8.316;2023-08-17T08:51:23;4.03;;;3.20;;
6185;SDS011;3126;52.738;8.316;2023-08-17T08:56:25;8.50;;;3.75;;
6185;SDS011;3126;52.738;8.316;2023-08-17T09:01:26;4.28;;;3.30;;
6185;SDS011;3126;52.738;8.316;2023-08-17T09:06:31;3.85;;;3.08;;
6185;SDS011;3126;52.738;8.316;2023-08-17T09:11:33;3.38;;;3.03;;
6185;SDS011;3126;52.738;8.316;2023-08-17T09:16:34;4.40;;;3.53;;
6185;SDS011;3126;52.738;8.316;2023-08-17T09:21:35;5.85;;;3.28;;
6185;SDS011;3126;52.738;8.316;2023-08-17T09:26:36;6.28;;;3.45;;
6185;SDS011;3126;52.738;8.316;2023-08-17T09:31:37;3.50;;;2.80;;
6185;SDS011;3126;52.738;8.316;2023-08-17T09:36:39;4.30;;;3.58;;
6185;SDS011;3126;52.738;8.316;2023-08-17T09:41:40;4.70;;;3.28;;
6185;SDS011;3126;52.738;8.316;2023-08-17T09:46:42;4.32;;;3.50;;
6185;SDS011;3126;52.738;8.316;2023-08-17T09:51:43;2.88;;;2.63;;
6185;SDS011;3126;52.738;8.316;2023-08-17T09:56:44;3.42;;;2.90;;
6185;SDS011;3126;52.738;8.316;2023-08-17T10:01:47;6.53;;;3.17;;
6185;SDS011;3126;52.738;8.316;2023-08-17T10:06:51;3.00;;;2.78;;
6185;SDS011;3126;52.738;8.316;2023-08-17T10:11:53;5.70;;;3.53;;
6185;SDS011;3126;52.738;8.316;2023-08-17T10:16:57;3.05;;;2.67;;
6185;SDS011;3126;52.738;8.316;2023-08-17T10:22:18;6.07;;;3.40;;
6185;SDS011;3126;52.738;8.316;2023-08-17T10:27:21;4.40;;;3.60;;
6185;SDS011;3126;52.738;8.316;2023-08-17T10:32:22;5.25;;;3.55;;
6185;SDS011;3126;52.738;8.316;2023-08-17T10:37:23;3.88;;;3.30;;
6185;SDS011;3126;52.738;8.316;2023-08-17T10:42:31;3.50;;;3.05;;
6185;SDS011;3126;52.738;8.316;2023-08-17T10:47:33;2.85;;;2.47;;
6185;SDS011;3126;52.738;8.316;2023-08-17T10:52:35;4.07;;;3.67;;
6185;SDS011;3126;52.738;8.316;2023-08-17T10:57:43;4.18;;;3.13;;
6185;SDS011;3126;52.738;8.316;2023-08-17T11:02:44;4.53;;;3.25;;
6185;SDS011;3126;52.738;8.316;2023-08-17T11:07:45;3.83;;;2.67;;
6185;SDS011;3126;52.738;8.316;2023-08-17T11:12:47;4.97;;;3.20;;
6185;SDS011;3126;52.738;8.316;2023-08-17T11:17:48;3.53;;;3.00;;
6185;SDS011;3126;52.738;8.316;2023-08-17T11:22:49;3.35;;;3.05;;
6185;SDS011;3126;52.738;8.316;2023-08-17T11:27:50;4.80;;;3.15;;
6185;SDS011;3126;52.738;8.316;2023-08-17T11:32:52;4.28;;;2.28;;
6185;SDS011;3126;52.738;8.316;2023-08-17T11:37:53;3.08;;;2.60;;
6185;SDS011;3126;52.738;8.316;2023-08-17T11:42:54;4.43;;;2.85;;
6185;SDS011;3126;52.738;8.316;2023-08-17T11:47:56;6.25;;;3.75;;
6185;SDS011;3126;52.738;8.316;2023-08-17T11:53:00;6.03;;;3.60;;
6185;SDS011;3126;52.738;8.316;2023-08-17T11:58:01;3.80;;;3.05;;
6185;SDS011;3126;52.738;8.316;2023-08-17T12:03:02;4.05;;;3.38;;
6185;SDS011;3126;52.738;8.316;2023-08-17T12:08:04;4.43;;;3.22;;
6185;SDS011;3126;52.738;8.316;2023-08-17T12:13:10;3.88;;;3.10;;
6185;SDS011;3126;52.738;8.316;2023-08-17T12:18:12;3.50;;;3.20;;
6185;SDS011;3126;52.738;8.316;2023-08-17T12:23:16;3.67;;;2.92;;
6185;SDS011;3126;52.738;8.316;2023-08-17T12:28:17;4.35;;;2.67;;
6185;SDS011;3126;52.738;8.316;2023-08-17T12:33:18;3.58;;;2.90;;
6185;SDS011;3126;52.738;8.316;2023-08-17T12:38:19;2.85;;;2.65;;
6185;SDS011;3126;52.738;8.316;2023-08-17T12:43:20;3.67;;;3.03;;
6185;SDS011;3126;52.738;8.316;2023-08-17T12:48:21;3.33;;;2.80;;
6185;SDS011;3126;52.738;8.316;2023-08-17T12:53:22;3.30;;;2.95;;
6185;SDS011;3126;52.738;8.316;2023-08-17T12:58:23;5.03;;;2.85;;
6185;SDS011;3126;52.738;8.316;2023-08-17T13:03:24;5.68;;;3.10;;
6185;SDS011;3126;52.738;8.316;2023-08-17T13:08:25;3.33;;;2.90;;
6185;SDS011;3126;52.738;8.316;2023-08-17T13:13:26;3.28;;;2.95;;
6185;SDS011;3126;52.738;8.316;2023-08-17T13:18:27;2.70;;;2.50;;
6185;SDS011;3126;52.738;8.316;2023-08-17T13:23:28;3.60;;;2.90;;
6185;SDS011;3126;52.738;8.316;2023-08-17T13:28:29;3.10;;;2.80;;
6185;SDS011;3126;52.738;8.316;2023-08-17T13:33:30;3.00;;;2.80;;
6185;SDS011;3126;52.738;8.316;2023-08-17T13:38:32;4.50;;;3.05;;
6185;SDS011;3126;52.738;8.316;2023-08-17T13:43:33;3.30;;;2.42;;
6185;SDS011;3126;52.738;8.316;2023-08-17T13:48:34;3.00;;;2.28;;
6185;SDS011;3126;52.738;8.316;2023-08-17T13:53:35;2.70;;;2.50;;
6185;SDS011;3126;52.738;8.316;2023-08-17T13:58:36;3.00;;;2.17;;
6185;SDS011;3126;52.738;8.316;2023-08-17T14:03:37;2.53;;;2.13;;
6185;SDS011;3126;52.738;8.316;2023-08-17T14:08:38;2.92;;;2.50;;
6185;SDS011;3126;52.738;8.316;2023-08-17T14:13:39;2.92;;;2.70;;
6185;SDS011;3126;52.738;8.316;2023-08-17T14:18:40;4.25;;;2.83;;
6185;SDS011;3126;52.738;8.316;2023-08-17T14:23:41;2.38;;;2.17;;
6185;SDS011;3126;52.738;8.316;2023-08-17T14:28:42;2.00;;;1.83;;
6185;SDS011;3126;52.738;8.316;2023-08-17T14:33:43;2.88;;;2.00;;
6185;SDS011;3126;52.738;8.316;2023-08-17T14:38:46;2.80;;;2.15;;
6185;SDS011;3126;52.738;8.316;2023-08-17T14:43:47;2.13;;;2.00;;
6185;SDS011;3126;52.738;8.316;2023-08-17T14:48:48;2.42;;;2.15;;
6185;SDS011;3126;52.738;8.316;2023-08-17T14:53:49;2.42;;;2.00;;
6185;SDS011;3126;52.738;8.316;2023-08-17T14:58:50;2.40;;;2.20;;
6185;SDS011;3126;52.738;8.316;2023-08-17T15:03:51;2.63;;;2.03;;
6185;SDS011;3126;52.738;8.316;2023-08-17T15:08:52;4.47;;;2.05;;
6185;SDS011;3126;52.738;8.316;2023-08-17T15:13:54;1.85;;;1.73;;
6185;SDS011;3126;52.738;8.316;2023-08-17T15:18:55;2.28;;;1.95;;
6185;SDS011;3126;52.738;8.316;2023-08-17T15:23:56;2.08;;;1.92;;
6185;SDS011;3126;52.738;8.316;2023-08-17T15:28:57;4.57;;;1.90;;
6185;SDS011;3126;52.738;8.316;2023-08-17T15:33:58;3.40;;;2.00;;
6185;SDS011;3126;52.738;8.316;2023-08-17T15:38:59;1.48;;;1.38;;
6185;SDS011;3126;52.738;8.316;2023-08-17T15:44:00;3.03;;;1.80;;
6185;SDS011;3126;52.738;8.316;2023-08-17T15:49:01;2.88;;;1.77;;
6185;SDS011;3126;52.738;8.316;2023-08-17T15:54:02;2.20;;;1.88;;
6185;SDS011;3126;52.738;8.316;2023-08-17T15:59:03;1.80;;;1.70;;
6185;SDS011;3126;52.738;8.316;2023-08-17T16:04:04;2.28;;;1.83;;
6185;SDS011;3126;52.738;8.316;2023-08-17T16:09:05;2.20;;;2.00;;
6185;SDS011;3126;52.738;8.316;2023-08-17T16:14:06;1.58;;;1.42;;
6185;SDS011;3126;52.738;8.316;2023-08-17T16:19:07;2.22;;;1.63;;
6185;SDS011;3126;52.738;8.316;2023-08-17T16:24:08;1.80;;;1.67;;
6185;SDS011;3126;52.738;8.316;2023-08-17T16:29:09;1.63;;;1.30;;
6185;SDS011;3126;52.738;8.316;2023-08-17T16:34:10;2.65;;;1.70;;
6185;SDS011;3126;52.738;8.316;2023-08-17T16:39:11;1.88;;;1.77;;
6185;SDS011;3126;52.738;8.316;2023-08-17T16:44:12;1.92;;;1.83;;
6185;SDS011;3126;52.738;8.316;2023-08-17T16:49:13;2.20;;;1.65;;
6185;SDS011;3126;52.738;8.316;2023-08-17T16:54:14;1.38;;;1.27;;
6185;SDS011;3126;52.738;8.316;2023-08-17T16:59:15;2.72;;;1.73;;
6185;SDS011;3126;52.738;8.316;2023-08-17T17:04:16;1.70;;;1.60;;
6185;SDS011;3126;52.738;8.316;2023-08-17T17:09:18;2.25;;;1.23;;
6185;SDS011;3126;52.738;8.316;2023-08-17T17:14:19;2.25;;;1.58;;
6185;SDS011;3126;52.738;8.316;2023-08-17T17:19:20;2.70;;;2.20;;
6185;SDS011;3126;52.738;8.316;2023-08-17T17:24:21;1.90;;;1.80;;
6185;SDS011;3126;52.738;8.316;2023-08-17T17:29:22;2.17;;;1.52;;
6185;SDS011;3126;52.738;8.316;2023-08-17T17:34:23;1.90;;;1.73;;
6185;SDS011;3126;52.738;8.316;2023-08-17T17:39:24;2.10;;;1.75;;
6185;SDS011;3126;52.738;8.316;2023-08-17T17:44:25;2.50;;;2.15;;
6185;SDS011;3126;52.738;8.316;2023-08-17T17:49:26;2.40;;;2.13;;
6185;SDS011;3126;52.738;8.316;2023-08-17T17:54:27;3.05;;;2.28;;
6185;SDS011;3126;52.738;8.316;2023-08-17T17:59:28;7.03;;;2.60;;
6185;SDS011;3126;52.738;8.316;2023-08-17T18:04:29;5.07;;;2.42;;
6185;SDS011;3126;52.738;8.316;2023-08-17T18:09:34;3.28;;;2.90;;
6185;SDS011;3126;52.738;8.316;2023-08-17T18:14:36;2.95;;;2.75;;
6185;SDS011;3126;52.738;8.316;2023-08-17T18:19:38;4.47;;;3.00;;
6185;SDS011;3126;52.738;8.316;2023-08-17T18:24:39;8.05;;;3.08;;
6185;SDS011;3126;52.738;8.316;2023-08-17T18:29:40;5.95;;;3.25;;
6185;SDS011;3126;52.738;8.316;2023-08-17T18:34:40;5.35;;;2.85;;
6185;SDS011;3126;52.738;8.316;2023-08-17T18:39:41;6.15;;;3.42;;
6185;SDS011;3126;52.738;8.316;2023-08-17T18:44:42;8.55;;;4.35;;
6185;SDS011;3126;52.738;8.316;2023-08-17T18:49:43;4.05;;;3.72;;
6185;SDS011;3126;52.738;8.316;2023-08-17T19:00:18;6.13;;;3.35;;
6185;SDS011;3126;52.738;8.316;2023-08-17T19:05:18;5.43;;;3.63;;
6185;SDS011;3126;52.738;8.316;2023-08-17T19:10:19;3.58;;;2.90;;
6185;SDS011;3126;52.738;8.316;2023-08-17T19:15:20;4.88;;;2.92;;
6185;SDS011;3126;52.738;8.316;2023-08-17T19:20:21;4.88;;;3.22;;
6185;SDS011;3126;52.738;8.316;2023-08-17T19:25:23;4.07;;;3.05;;
6185;SDS011;3126;52.738;8.316;2023-08-17T19:30:24;3.35;;;3.05;;
6185;SDS011;3126;52.738;8.316;2023-08-17T19:35:25;4.90;;;2.72;;
6185;SDS011;3126;52.738;8.316;2023-08-17T19:40:26;6.60;;;2.88;;
6185;SDS011;3126;52.738;8.316;2023-08-17T19:45:27;3.25;;;3.03;;
6185;SDS011;3126;52.738;8.316;2023-08-17T19:50:29;3.70;;;3.00;;
6185;SDS011;3126;52.738;8.316;2023-08-17T19:55:29;4.53;;;3.28;;
6185;SDS011;3126;52.738;8.316;2023-08-17T20:00:30;3.83;;;3.17;;
6185;SDS011;3126;52.738;8.316;2023-08-17T20:05:32;3.67;;;2.72;;
6185;SDS011;3126;52.738;8.316;2023-08-17T20:10:33;5.57;;;3.38;;
6185;SDS011;3126;52.738;8.316;2023-08-17T20:15:34;4.53;;;3.35;;
6185;SDS011;3126;52.738;8.316;2023-08-17T20:20:35;4.40;;;2.50;;
6185;SDS011;3126;52.738;8.316;2023-08-17T20:25:35;3.70;;;3.22;;
6185;SDS011;3126;52.738;8.316;2023-08-17T20:30:36;4.50;;;3.03;;
6185;SDS011;3126;52.738;8.316;2023-08-17T20:35:38;4.05;;;3.03;;
6185;SDS011;3126;52.738;8.316;2023-08-17T20:40:40;7.68;;;3.33;;
6185;SDS011;3126;52.738;8.316;2023-08-17T20:45:41;4.60;;;2.85;;
6185;SDS011;3126;52.738;8.316;2023-08-17T20:50:42;5.20;;;3.20;;
6185;SDS011;3126;52.738;8.316;2023-08-17T20:55:47;4.93;;;3.65;;
6185;SDS011;3126;52.738;8.316;2023-08-17T21:00:48;6.32;;;3.65;;
6185;SDS011;3126;52.738;8.316;2023-08-17T21:05:49;5.00;;;3.78;;
6185;SDS011;3126;52.738;8.316;2023-08-17T21:10:50;7.22;;;3.88;;
6185;SDS011;3126;52.738;8.316;2023-08-17T21:16:08;7.50;;;5.10;;
6185;SDS011;3126;52.738;8.316;2023-08-17T21:21:09;8.27;;;4.50;;
6185;SDS011;3126;52.738;8.316;2023-08-17T21:26:10;7.00;;;4.00;;
6185;SDS011;3126;52.738;8.316;2023-08-17T21:31:11;6.78;;;4.50;;
6185;SDS011;3126;52.738;8.316;2023-08-17T21:36:12;5.82;;;4.13;;
6185;SDS011;3126;52.738;8.316;2023-08-17T21:41:13;5.35;;;3.95;;
6185;SDS011;3126;52.738;8.316;2023-08-17T21:46:14;10.10;;;4.85;;
6185;SDS011;3126;52.738;8.316;2023-08-17T21:51:15;6.45;;;4.47;;
6185;SDS011;3126;52.738;8.316;2023-08-17T21:56:16;6.82;;;4.32;;
6185;SDS011;3126;52.738;8.316;2023-08-17T22:01:16;5.55;;;4.13;;
6185;SDS011;3126;52.738;8.316;2023-08-17T22:06:17;8.50;;;4.40;;
6185;SDS011;3126;52.738;8.316;2023-08-17T22:11:18;7.63;;;4.22;;
6185;SDS011;3126;52.738;8.316;2023-08-17T22:16:19;5.13;;;3.30;;
6185;SDS011;3126;52.738;8.316;2023-08-17T22:21:20;6.38;;;3.60;;
6185;SDS011;3126;52.738;8.316;2023-08-17T22:26:21;4.18;;;3.33;;
6185;SDS011;3126;52.738;8.316;2023-08-17T22:31:22;4.63;;;3.80;;
6185;SDS011;3126;52.738;8.316;2023-08-17T22:36:23;5.43;;;3.60;;
6185;SDS011;3126;52.738;8.316;2023-08-17T22:41:24;5.35;;;4.00;;
6185;SDS011;3126;52.738;8.316;2023-08-17T22:46:25;4.47;;;4.07;;
6185;SDS011;3126;52.738;8.316;2023-08-17T22:51:26;4.15;;;3.80;;
6185;SDS011;3126;52.738;8.316;2023-08-17T22:56:27;4.50;;;4.10;;
6185;SDS011;3126;52.738;8.316;2023-08-17T23:01:28;7.18;;;4.53;;
6185;SDS011;3126;52.738;8.316;2023-08-17T23:06:29;7.47;;;3.88;;
6185;SDS011;3126;52.738;8.316;2023-08-17T23:11:30;7.03;;;4.45;;
6185;SDS011;3126;52.738;8.316;2023-08-17T23:16:31;5.22;;;4.10;;
6185;SDS011;3126;52.738;8.316;2023-08-17T23:21:32;5.80;;;3.90;;
6185;SDS011;3126;52.738;8.316;2023-08-17T23:26:33;6.53;;;4.72;;
6185;SDS011;3126;52.738;8.316;2023-08-17T23:31:34;6.03;;;4.65;;
6185;SDS011;3126;52.738;8.316;2023-08-17T23:36:35;4.28;;;3.67;;
6185;SDS011;3126;52.738;8.316;2023-08-17T23:41:36;5.00;;;4.60;;
6185;SDS011;3126;52.738;8.316;2023-08-17T23:46:37;6.63;;;4.53;;
6185;SDS011;3126;52.738;8.316;2023-08-17T23:51:38;5.30;;;4.57;;
6185;SDS011;3126;52.738;8.316;2023-08-17T23:56:39;4.82;;;4.30;;
